Time;durP1;ratioP1;P1;durP2;ratioP2;P2;SDS_P1;SDS_P2;PMS_P1;PMS_P2;Temp;Humidity;BMP_temperature;BMP_pressure;BME280_temperature;BME280_humidity;BME280_pressure;Samples;Min_cycle;Max_cycle;Signal;HPM_P1;HPM_P2
2022/11/15 00:01:17;;;;;;;5.73;1.50;;;23.30;50.50;;;;;;5032202;28;20569;-70
2022/11/15 00:03:45;;;;;;;6.63;1.47;;;23.30;50.30;;;;;;5051324;28;20181;-69
2022/11/15 00:06:13;;;;;;;4.77;1.20;;;23.00;50.60;;;;;;5044511;28;20765;-69
2022/11/15 00:08:41;;;;;;;4.87;1.10;;;22.80;51.30;;;;;;5046331;28;20273;-70
2022/11/15 00:11:11;;;;;;;4.30;1.60;;;22.80;50.50;;;;;;5051788;28;20186;-69
2022/11/15 00:13:39;;;;;;;6.17;1.40;;;22.70;50.90;;;;;;5051515;28;20168;-69
2022/11/15 00:16:07;;;;;;;6.43;1.43;;;22.50;50.80;;;;;;5048255;28;20540;-69
2022/11/15 00:18:34;;;;;;;6.53;1.50;;;22.40;52.60;;;;;;5048288;28;20168;-69
2022/11/15 00:21:10;;;;;;;7.70;1.67;;;22.50;53.00;;;;;;5054900;28;20210;-70
2022/11/15 00:23:38;;;;;;;9.67;1.70;;;22.80;52.70;;;;;;5047507;28;20572;-69
2022/11/15 00:26:06;;;;;;;8.10;1.70;;;22.80;53.50;;;;;;5032449;28;20184;-70
2022/11/15 00:28:33;;;;;;;7.73;1.73;;;23.00;52.60;;;;;;5031218;28;20234;-70
2022/11/15 00:31:11;;;;;;;4.97;1.50;;;23.30;51.60;;;;;;5031738;28;20535;-70
2022/11/15 00:33:38;;;;;;;6.90;1.30;;;23.30;50.70;;;;;;5057555;28;20646;-70
2022/11/15 00:36:11;;;;;;;13.63;2.03;;;22.70;52.50;;;;;;5064613;28;20526;-70
2022/11/15 00:38:40;;;;;;;10.27;2.80;;;22.80;53.60;;;;;;5036337;28;20208;-69
2022/11/15 00:41:08;;;;;;;14.50;2.70;;;22.80;56.30;;;;;;5043208;28;20212;-70
2022/11/15 00:43:36;;;;;;;13.00;2.63;;;22.70;57.10;;;;;;5073881;28;20186;-71
2022/11/15 00:46:03;;;;;;;16.57;3.13;;;22.40;58.20;;;;;;5038337;28;20251;-71
2022/11/15 00:48:31;;;;;;;9.73;2.40;;;22.10;58.80;;;;;;5035893;28;20216;-71
2022/11/15 00:50:59;;;;;;;10.17;2.43;;;22.20;58.40;;;;;;5041600;28;20494;-71
2022/11/15 00:53:26;;;;;;;12.23;2.60;;;22.10;58.70;;;;;;5051078;28;20222;-71
2022/11/15 00:55:54;;;;;;;8.23;2.27;;;22.00;59.00;;;;;;5035876;28;20662;-70
2022/11/15 00:58:21;;;;;;;10.17;2.63;;;21.80;58.80;;;;;;5035723;28;20729;-71
2022/11/15 01:00:48;;;;;;;9.57;2.33;;;21.80;59.00;;;;;;5046960;28;20686;-71
2022/11/15 01:03:16;;;;;;;11.70;2.20;;;21.80;59.20;;;;;;5046353;28;20196;-69
2022/11/15 01:05:43;;;;;;;7.47;2.57;;;21.90;59.40;;;;;;5043646;28;20729;-69
2022/11/15 01:08:14;;;;;;;9.83;2.50;;;22.00;59.70;;;;;;5041759;28;20219;-69
2022/11/15 01:10:42;;;;;;;12.00;2.53;;;22.00;59.50;;;;;;5058585;28;20606;-68
2022/11/15 01:13:10;;;;;;;12.80;2.87;;;21.90;59.90;;;;;;5044216;28;20597;-70
2022/11/15 01:15:41;;;;;;;15.93;2.87;;;22.00;60.10;;;;;;5049938;28;20188;-69
2022/11/15 01:18:09;;;;;;;12.03;2.60;;;22.30;58.50;;;;;;5052222;28;20191;-69
2022/11/15 01:20:41;;;;;;;15.43;2.70;;;22.60;58.40;;;;;;5049407;28;20233;-69
2022/11/15 01:23:09;;;;;;;14.47;5.07;;;22.80;57.80;;;;;;5054030;28;20528;-69
2022/11/15 01:25:36;;;;;;;14.07;3.17;;;22.60;57.80;;;;;;5047654;28;20188;-69
2022/11/15 01:28:04;;;;;;;12.40;4.10;;;22.50;57.20;;;;;;5053422;28;20211;-69
2022/11/15 01:30:31;;;;;;;13.23;2.97;;;22.80;56.80;;;;;;5046707;28;20180;-69
2022/11/15 01:32:59;;;;;;;10.27;2.37;;;23.50;55.00;;;;;;5053265;28;20210;-69
2022/11/15 01:35:26;;;;;;;12.60;2.53;;;23.90;54.90;;;;;;5053165;28;20183;-70
2022/11/15 01:37:53;;;;;;;10.57;2.13;;;24.20;52.30;;;;;;5049255;28;20195;-69
2022/11/15 01:40:21;;;;;;;9.77;2.43;;;23.90;52.80;;;;;;5053615;28;20187;-69
2022/11/15 01:42:48;;;;;;;12.87;3.00;;;23.70;53.90;;;;;;5052724;28;20290;-68
2022/11/15 01:45:16;;;;;;;12.23;2.37;;;23.30;55.70;;;;;;5053700;28;20595;-69
2022/11/15 01:47:52;;;;;;;10.00;2.17;;;24.10;52.30;;;;;;5051414;28;20720;-69
2022/11/15 01:50:25;;;;;;;12.27;2.90;;;24.60;50.20;;;;;;5053031;28;20194;-69
2022/11/15 01:52:52;;;;;;;11.77;2.80;;;24.30;52.10;;;;;;5048065;28;20184;-69
2022/11/15 01:55:24;;;;;;;9.87;2.40;;;24.10;53.40;;;;;;5052696;28;20230;-69
2022/11/15 01:57:57;;;;;;;8.33;2.40;;;23.80;53.80;;;;;;5047294;28;20581;-69
2022/11/15 02:00:24;;;;;;;11.20;2.40;;;23.40;54.70;;;;;;5051023;28;20212;-70
2022/11/15 02:02:51;;;;;;;14.27;2.23;;;23.90;53.60;;;;;;5052602;28;20184;-69
2022/11/15 02:05:19;;;;;;;8.30;2.67;;;23.70;53.90;;;;;;5050484;28;20263;-69
2022/11/15 02:07:47;;;;;;;10.30;2.80;;;23.30;54.10;;;;;;5052276;28;20254;-69
2022/11/15 02:10:20;;;;;;;16.57;2.77;;;23.50;54.60;;;;;;5053655;28;20183;-68
2022/11/15 02:12:48;;;;;;;12.47;2.97;;;23.40;54.50;;;;;;5040477;28;20195;-69
2022/11/15 02:15:15;;;;;;;13.57;2.97;;;23.30;54.50;;;;;;5052079;28;20180;-69
2022/11/15 02:17:56;;;;;;;10.40;2.80;;;23.00;54.90;;;;;;5052939;28;20673;-70
2022/11/15 02:20:50;;;;;;;11.13;2.47;;;22.90;55.30;;;;;;5050633;28;20172;-69
2022/11/15 02:24:02;;;;;;;10.27;2.73;;;22.80;56.30;;;;;;5044416;28;20211;-69
2022/11/15 02:26:32;;;;;;;19.23;3.33;;;22.80;56.50;;;;;;5056750;28;20176;-68
2022/11/15 02:29:14;;;;;;;13.47;2.73;;;22.80;56.00;;;;;;5051295;28;20187;-68
2022/11/15 02:32:16;;;;;;;12.33;2.77;;;22.90;55.90;;;;;;5046269;28;20219;-69
2022/11/15 02:35:05;;;;;;;13.77;2.53;;;22.80;56.60;;;;;;5049680;28;20228;-69
2022/11/15 02:37:58;;;;;;;13.20;3.03;;;23.30;56.50;;;;;;5051167;28;20577;-69
2022/11/15 02:41:02;;;;;;;15.30;3.03;;;23.60;55.70;;;;;;5051508;28;20190;-69
2022/11/15 02:43:58;;;;;;;12.10;2.73;;;24.00;53.10;;;;;;5042873;28;20511;-69
2022/11/15 02:49:25;;;;;;;16.80;2.80;;;24.80;51.00;;;;;;5046420;28;20300;-70
2022/11/15 02:51:55;;;;;;;15.00;3.17;;;25.20;50.40;;;;;;5051803;28;20669;-70
2022/11/15 02:54:25;;;;;;;10.90;2.80;;;24.30;52.30;;;;;;5051700;28;20180;-70
2022/11/15 02:57:02;;;;;;;12.57;2.73;;;23.50;54.50;;;;;;5046508;28;20680;-70
2022/11/15 02:59:44;;;;;;;18.23;3.10;;;23.10;55.60;;;;;;5052100;28;20183;-69
2022/11/15 03:02:40;;;;;;;12.53;2.97;;;22.70;56.70;;;;;;5044843;28;20180;-70
2022/11/15 03:05:34;;;;;;;11.07;2.90;;;23.00;55.50;;;;;;5050111;28;20706;-70
2022/11/15 03:08:18;;;;;;;12.87;2.73;;;23.70;54.50;;;;;;5060122;28;20219;-70
2022/11/15 03:11:08;;;;;;;10.17;3.00;;;23.60;54.20;;;;;;5033580;28;20180;-70
2022/11/15 03:14:00;;;;;;;11.83;2.83;;;23.50;54.20;;;;;;5033118;28;20184;-70
2022/11/15 03:17:06;;;;;;;9.13;2.57;;;23.40;53.20;;;;;;5045540;28;20262;-71
2022/11/15 03:19:40;;;;;;;8.63;2.50;;;23.10;54.50;;;;;;5004154;28;20770;-71
2022/11/15 03:22:12;;;;;;;12.10;2.30;;;23.60;53.80;;;;;;5031605;28;20210;-71
2022/11/15 03:24:42;;;;;;;12.40;3.03;;;24.20;52.50;;;;;;5046729;28;20542;-70
2022/11/15 03:27:15;;;;;;;17.93;3.03;;;24.80;52.10;;;;;;5037640;28;20214;-70
2022/11/15 03:29:47;;;;;;;11.57;2.67;;;25.40;49.30;;;;;;5041288;28;20266;-71
2022/11/15 03:32:23;;;;;;;13.90;3.17;;;26.00;49.50;;;;;;5044430;28;20255;-70
2022/11/15 03:34:53;;;;;;;10.33;2.87;;;26.00;49.10;;;;;;5042038;28;20701;-69
2022/11/15 03:37:25;;;;;;;10.33;2.87;;;26.50;47.30;;;;;;5033593;28;20675;-71
2022/11/15 03:39:53;;;;;;;10.97;3.03;;;26.30;48.10;;;;;;5040138;28;20237;-70
2022/11/15 03:42:28;;;;;;;11.37;3.20;;;25.80;49.90;;;;;;5032764;28;20905;-69
2022/11/15 03:45:13;;;;;;;10.33;2.83;;;25.00;51.40;;;;;;5049934;28;20225;-69
2022/11/15 03:48:00;;;;;;;12.83;2.93;;;24.50;53.60;;;;;;5041393;28;20565;-69
2022/11/15 03:50:28;;;;;;;13.60;3.30;;;24.20;55.70;;;;;;5040346;28;20530;-69
2022/11/15 03:52:57;;;;;;;11.73;3.00;;;24.30;55.40;;;;;;5047621;28;20191;-69
2022/11/15 03:55:24;;;;;;;11.97;3.43;;;25.10;53.40;;;;;;5035702;28;20649;-69
2022/11/15 03:57:56;;;;;;;11.30;3.20;;;25.40;52.50;;;;;;5041074;28;20187;-70
2022/11/15 04:00:24;;;;;;;19.67;3.60;;;25.60;51.90;;;;;;5032596;28;20663;-71
2022/11/15 04:02:51;;;;;;;19.10;3.63;;;24.70;53.90;;;;;;5032095;28;20685;-69
2022/11/15 04:05:18;;;;;;;18.83;3.90;;;24.30;55.30;;;;;;5043141;28;20269;-69
2022/11/15 04:07:46;;;;;;;13.03;3.00;;;24.50;56.10;;;;;;5046963;28;20204;-69
2022/11/15 04:10:13;;;;;;;15.90;4.07;;;24.30;56.20;;;;;;5042253;28;20183;-70
2022/11/15 04:12:43;;;;;;;16.17;3.20;;;23.70;58.60;;;;;;5044073;28;20180;-69
2022/11/15 04:15:11;;;;;;;14.33;3.23;;;23.40;59.30;;;;;;5032103;28;20219;-70
2022/11/15 04:17:50;;;;;;;11.77;3.20;;;23.00;58.90;;;;;;5045323;28;20204;-70
2022/11/15 04:25:55;;;;;;;16.93;3.10;;;22.30;60.80;;;;;;5032398;28;20172;-69
2022/11/15 04:28:22;;;;;;;16.93;3.37;;;22.10;61.40;;;;;;5032038;28;20200;-69
2022/11/15 04:30:50;;;;;;;19.70;3.60;;;22.20;63.50;;;;;;5031866;28;20310;-69
2022/11/15 04:33:17;;;;;;;14.87;3.13;;;22.00;64.50;;;;;;5031374;28;20237;-69
2022/11/15 04:37:11;;;;;;;15.37;3.40;;;21.90;64.60;;;;;;5032567;28;20212;-68
2022/11/15 04:38:32;;;;;;;14.20;3.93;;;22.30;63.40;;;;;;5031467;28;20191;-69
2022/11/15 04:40:59;;;;;;;15.37;3.43;;;23.40;60.20;;;;;;5045869;28;20541;-70
2022/11/15 04:43:27;;;;;;;18.23;3.80;;;24.00;57.40;;;;;;5042710;28;20181;-69
2022/11/15 04:45:54;;;;;;;9.67;3.03;;;23.70;58.10;;;;;;5031342;28;20224;-68
2022/11/15 04:48:22;;;;;;;12.53;2.90;;;23.30;59.40;;;;;;5031898;28;20584;-69
2022/11/15 04:50:49;;;;;;;14.83;3.60;;;23.30;59.90;;;;;;5030905;28;20593;-69
2022/11/15 04:53:17;;;;;;;13.47;3.70;;;24.70;55.60;;;;;;5042507;28;20730;-70
2022/11/15 04:55:47;;;;;;;11.20;3.17;;;25.10;54.50;;;;;;5055645;28;20199;-69
2022/11/15 04:58:15;;;;;;;13.20;3.43;;;25.20;53.90;;;;;;5034063;28;20187;-69
2022/11/15 05:00:42;;;;;;;13.67;3.30;;;25.30;53.90;;;;;;5043606;28;20192;-69
2022/11/15 05:05:55;;;;;;;13.50;3.03;;;25.90;51.90;;;;;;5048699;28;20561;-71
2022/11/15 05:08:23;;;;;;;12.93;3.17;;;25.10;53.30;;;;;;5045884;28;20224;-70
2022/11/15 05:10:50;;;;;;;11.67;2.87;;;25.30;51.60;;;;;;5049914;28;20176;-70
2022/11/15 05:13:18;;;;;;;9.17;2.50;;;26.20;50.10;;;;;;5049239;28;20279;-67
2022/11/15 05:15:45;;;;;;;10.80;2.73;;;25.90;48.50;;;;;;5053905;28;20229;-69
2022/11/15 05:18:13;;;;;;;19.73;2.90;;;25.30;50.60;;;;;;5048220;28;20176;-70
2022/11/15 05:20:40;;;;;;;9.93;2.53;;;24.80;52.20;;;;;;5047856;28;20192;-69
2022/11/15 05:23:07;;;;;;;12.63;2.67;;;25.80;50.70;;;;;;5047785;28;20184;-69
2022/11/15 05:25:37;;;;;;;9.27;2.27;;;25.40;50.20;;;;;;5053301;28;20197;-70
2022/11/15 05:28:04;;;;;;;10.50;2.87;;;25.80;49.50;;;;;;5051534;28;20598;-70
2022/11/15 05:30:32;;;;;;;14.80;3.33;;;25.10;52.40;;;;;;5049586;28;20181;-70
2022/11/15 05:33:00;;;;;;;12.63;3.27;;;24.30;55.20;;;;;;5053263;28;20192;-70
2022/11/15 05:35:41;;;;;;;12.47;3.10;;;25.00;52.70;;;;;;5053344;28;20211;-70
2022/11/15 05:38:09;;;;;;;7.13;2.30;;;25.10;52.20;;;;;;5054511;28;20189;-69
2022/11/15 05:40:36;;;;;;;6.70;2.30;;;24.10;54.50;;;;;;5047894;28;20207;-69
2022/11/15 05:43:05;;;;;;;12.97;2.70;;;25.20;52.50;;;;;;5052974;28;20184;-69
2022/11/15 05:45:34;;;;;;;11.07;2.90;;;24.90;53.50;;;;;;5050261;28;20230;-70
2022/11/15 05:48:08;;;;;;;15.17;3.33;;;24.90;53.90;;;;;;5044323;28;20623;-70
2022/11/15 05:50:39;;;;;;;10.43;2.70;;;25.30;52.40;;;;;;5047793;28;20188;-70
2022/11/15 05:53:07;;;;;;;10.63;2.73;;;25.30;52.00;;;;;;5049794;28;20188;-69
2022/11/15 05:55:35;;;;;;;7.50;2.47;;;24.00;54.40;;;;;;5047488;28;20189;-69
2022/11/15 05:58:02;;;;;;;10.93;2.60;;;23.80;54.60;;;;;;5042540;28;20191;-68
2022/11/15 06:00:29;;;;;;;13.13;2.90;;;24.60;52.60;;;;;;5048303;28;20182;-68
2022/11/15 06:02:57;;;;;;;10.57;2.47;;;25.30;52.00;;;;;;5040923;28;20196;-67
2022/11/15 06:05:24;;;;;;;13.00;2.40;;;24.80;52.80;;;;;;5042422;28;20181;-67
2022/11/15 06:07:52;;;;;;;8.87;2.50;;;24.90;53.40;;;;;;5054411;28;20203;-68
2022/11/15 06:10:19;;;;;;;13.83;2.70;;;25.70;51.00;;;;;;5048006;28;20245;-69
2022/11/15 06:12:46;;;;;;;10.37;2.73;;;24.60;53.50;;;;;;5036365;28;20820;-68
2022/11/15 06:15:13;;;;;;;10.23;2.83;;;24.30;54.90;;;;;;5044358;28;20191;-69
2022/11/15 06:17:41;;;;;;;14.13;3.40;;;24.70;54.50;;;;;;5053773;28;20224;-70
2022/11/15 06:20:09;;;;;;;11.43;2.93;;;24.60;54.60;;;;;;5036029;28;20489;-69
2022/11/15 06:22:36;;;;;;;12.60;2.80;;;24.00;57.20;;;;;;5038832;28;20168;-70
2022/11/15 06:25:03;;;;;;;13.17;3.17;;;23.80;57.90;;;;;;5054124;28;20249;-70
2022/11/15 06:27:31;;;;;;;16.73;3.17;;;23.30;59.70;;;;;;5040628;28;20295;-70
2022/11/15 06:29:58;;;;;;;14.97;3.10;;;22.90;61.50;;;;;;5037665;28;20266;-70
2022/11/15 06:32:25;;;;;;;12.80;2.63;;;23.30;59.50;;;;;;5037783;28;20287;-70
2022/11/15 06:34:53;;;;;;;11.70;3.30;;;23.20;59.20;;;;;;5033793;28;20260;-70
2022/11/15 06:37:20;;;;;;;12.93;3.47;;;23.20;60.30;;;;;;5051053;28;20696;-70
2022/11/15 06:39:47;;;;;;;14.03;3.20;;;23.00;60.20;;;;;;5047302;28;20215;-70
2022/11/15 06:42:15;;;;;;;17.20;3.50;;;22.80;61.50;;;;;;5033767;28;20169;-70
2022/11/15 06:44:42;;;;;;;19.63;3.87;;;22.70;61.40;;;;;;5033850;28;20224;-70
2022/11/15 06:47:09;;;;;;;16.77;3.37;;;22.60;61.40;;;;;;5033893;28;20211;-68
2022/11/15 06:49:37;;;;;;;15.67;3.40;;;22.40;62.50;;;;;;5033488;28;20692;-70
2022/11/15 06:52:04;;;;;;;11.57;3.27;;;22.10;63.60;;;;;;5033968;28;20222;-70
2022/11/15 06:54:32;;;;;;;20.20;3.43;;;21.70;64.40;;;;;;5061446;28;20183;-69
2022/11/15 06:56:59;;;;;;;13.43;3.23;;;21.60;64.70;;;;;;5033585;28;20204;-70
2022/11/15 06:59:26;;;;;;;15.07;3.10;;;21.40;65.90;;;;;;5034282;28;20177;-69
2022/11/15 07:01:54;;;;;;;15.53;3.60;;;21.60;66.00;;;;;;5033485;28;20249;-70
2022/11/15 07:04:21;;;;;;;17.57;3.47;;;21.70;66.40;;;;;;5060333;28;20238;-70
2022/11/15 07:06:49;;;;;;;17.73;3.40;;;21.50;66.50;;;;;;5053080;28;20271;-70
2022/11/15 07:09:16;;;;;;;16.03;3.77;;;21.40;66.40;;;;;;5056057;28;20274;-70
2022/11/15 07:11:43;;;;;;;13.83;3.00;;;21.40;66.90;;;;;;5045303;28;20261;-69
2022/11/15 07:14:11;;;;;;;17.67;3.50;;;21.10;67.90;;;;;;5048586;28;20520;-70
2022/11/15 07:16:38;;;;;;;15.30;3.37;;;20.90;69.30;;;;;;5050945;28;20176;-69
2022/11/15 07:19:06;;;;;;;16.70;3.60;;;21.00;69.40;;;;;;5053696;28;20180;-69
2022/11/15 07:21:33;;;;;;;15.40;3.03;;;21.00;70.00;;;;;;5051772;28;20579;-70
2022/11/15 07:24:01;;;;;;;13.13;2.93;;;21.10;69.60;;;;;;5039047;28;20221;-69
2022/11/15 07:26:28;;;;;;;17.87;3.70;;;21.00;70.00;;;;;;5031072;28;20177;-69
2022/11/15 07:28:57;;;;;;;12.30;3.60;;;20.80;71.00;;;;;;5031807;28;20293;-69
2022/11/15 07:31:25;;;;;;;16.93;3.67;;;20.70;71.50;;;;;;5032148;28;20303;-71
2022/11/15 07:33:52;;;;;;;19.10;4.17;;;20.50;73.20;;;;;;5032376;28;20589;-70
2022/11/15 07:36:20;;;;;;;27.23;4.40;;;20.50;73.90;;;;;;5033181;28;20169;-70
2022/11/15 07:38:47;;;;;;;18.63;3.63;;;20.60;75.60;;;;;;5032382;28;20713;-71
2022/11/15 07:41:14;;;;;;;17.07;4.23;;;20.50;77.60;;;;;;5036270;28;20192;-71
2022/11/15 07:43:42;;;;;;;16.40;3.77;;;20.30;80.40;;;;;;5041387;28;20263;-72
2022/11/15 07:46:10;;;;;;;16.53;4.23;;;20.00;81.00;;;;;;5048988;28;20577;-70
2022/11/15 07:48:39;;;;;;;20.60;4.30;;;19.70;83.10;;;;;;5050359;28;20264;-71
2022/11/15 07:51:10;;;;;;;26.80;5.13;;;19.70;83.40;;;;;;5047408;28;20183;-69
2022/11/15 07:53:37;;;;;;;34.03;5.80;;;19.50;85.40;;;;;;5053410;28;20175;-67
2022/11/15 07:56:07;;;;;;;23.97;5.30;;;19.30;85.40;;;;;;5054013;28;20168;-67
2022/11/15 07:58:35;;;;;;;25.97;4.87;;;19.00;87.40;;;;;;5034145;28;20172;-68
2022/11/15 08:01:07;;;;;;;18.20;4.50;;;19.00;86.90;;;;;;5033559;28;20540;-68
2022/11/15 08:03:34;;;;;;;21.07;4.10;;;18.90;86.40;;;;;;5034687;28;20205;-70
2022/11/15 08:06:02;;;;;;;17.27;4.07;;;18.90;86.40;;;;;;5053762;28;20223;-70
2022/11/15 08:08:29;;;;;;;19.73;4.40;;;18.90;87.10;;;;;;5032287;28;20208;-69
2022/11/15 08:10:59;;;;;;;20.03;4.47;;;18.90;88.40;;;;;;5032441;28;20534;-69
2022/11/15 08:13:27;;;;;;;21.03;4.73;;;18.90;88.20;;;;;;5045541;28;20270;-70
2022/11/15 08:15:59;;;;;;;14.87;3.90;;;19.00;88.20;;;;;;5063324;28;20175;-70
2022/11/15 08:18:27;;;;;;;14.30;3.67;;;18.80;87.20;;;;;;5063558;28;20176;-70
2022/11/15 08:20:54;;;;;;;21.37;4.40;;;18.80;87.80;;;;;;5031041;28;20177;-71
2022/11/15 08:23:21;;;;;;;21.67;4.67;;;18.90;87.80;;;;;;5052327;28;20201;-70
2022/11/15 08:25:49;;;;;;;24.13;4.70;;;18.90;88.30;;;;;;5032248;28;20165;-70
2022/11/15 08:28:17;;;;;;;16.97;4.47;;;18.80;88.20;;;;;;5035549;28;20707;-70
2022/11/15 08:30:45;;;;;;;21.73;4.33;;;18.80;88.10;;;;;;5038198;28;20227;-70
2022/11/15 08:33:14;;;;;;;23.73;4.27;;;18.80;88.20;;;;;;5043281;28;20177;-70
2022/11/15 08:35:42;;;;;;;15.83;4.20;;;18.80;88.80;;;;;;5035442;28;20261;-70
2022/11/15 08:38:10;;;;;;;17.67;4.40;;;18.80;88.90;;;;;;5045530;28;20196;-70
2022/11/15 08:40:38;;;;;;;22.07;5.47;;;18.80;89.10;;;;;;5045125;28;20184;-70
2022/11/15 08:43:05;;;;;;;16.10;4.13;;;18.80;89.10;;;;;;5049312;28;20188;-71
2022/11/15 08:45:35;;;;;;;21.23;5.17;;;18.70;89.30;;;;;;5035771;28;20566;-70
2022/11/15 08:48:04;;;;;;;27.73;5.33;;;18.70;89.30;;;;;;5047416;28;20196;-70
2022/11/15 08:50:31;;;;;;;19.63;4.73;;;18.60;89.20;;;;;;5041799;28;20187;-71
2022/11/15 08:53:04;;;;;;;23.70;4.77;;;18.50;88.90;;;;;;5049045;28;20188;-70
2022/11/15 08:55:32;;;;;;;22.47;4.33;;;18.40;89.20;;;;;;5051197;28;20262;-70
2022/11/15 08:57:59;;;;;;;16.67;4.00;;;18.40;89.00;;;;;;5054442;28;20187;-70
2022/11/15 09:00:26;;;;;;;16.50;4.50;;;18.60;89.40;;;;;;5059380;28;20179;-70
2022/11/15 09:02:54;;;;;;;22.87;4.53;;;18.60;89.30;;;;;;5050792;28;20215;-70
2022/11/15 09:05:21;;;;;;;20.53;3.87;;;18.60;89.10;;;;;;5051278;28;20270;-70
2022/11/15 09:07:53;;;;;;;18.70;4.10;;;18.50;89.00;;;;;;5043415;28;20250;-70
2022/11/15 09:10:21;;;;;;;22.60;3.63;;;18.40;88.50;;;;;;5058735;28;20187;-70
2022/11/15 09:12:49;;;;;;;22.10;3.90;;;18.50;88.60;;;;;;5052272;28;20177;-70
2022/11/15 09:15:17;;;;;;;25.77;5.27;;;18.40;88.10;;;;;;5053967;28;20531;-70
2022/11/15 09:17:44;;;;;;;20.07;3.80;;;18.50;88.50;;;;;;5054043;28;20281;-70
2022/11/15 09:20:11;;;;;;;16.63;3.53;;;18.50;87.80;;;;;;5052995;28;20203;-71
2022/11/15 09:22:39;;;;;;;22.07;4.00;;;18.40;88.00;;;;;;5052784;28;20241;-71
2022/11/15 09:25:07;;;;;;;16.73;3.30;;;18.50;88.20;;;;;;5055430;28;20191;-70
2022/11/15 09:27:34;;;;;;;16.63;4.10;;;18.60;88.20;;;;;;5056806;28;20565;-70
2022/11/15 09:30:02;;;;;;;13.97;3.30;;;18.50;87.90;;;;;;5052445;28;20635;-70
2022/11/15 09:32:30;;;;;;;14.67;3.07;;;18.60;88.30;;;;;;5051329;28;20635;-70
2022/11/15 09:34:58;;;;;;;16.77;3.50;;;18.60;87.80;;;;;;5047498;28;20188;-70
2022/11/15 09:37:26;;;;;;;18.33;3.43;;;18.50;87.50;;;;;;5042130;28;20484;-70
2022/11/15 09:39:53;;;;;;;24.37;4.63;;;18.60;88.00;;;;;;5054369;28;20756;-71
2022/11/15 09:42:55;;;;;;;14.03;3.30;;;18.50;87.50;;;;;;5044016;28;20208;-71
2022/11/15 09:45:42;;;;;;;19.67;3.90;;;18.60;87.80;;;;;;5042510;28;20228;-70
2022/11/15 09:48:15;;;;;;;23.60;4.27;;;18.60;87.50;;;;;;5051854;28;20243;-70
2022/11/15 09:50:46;;;;;;;23.43;4.47;;;18.50;87.70;;;;;;5048491;28;20180;-69
2022/11/15 09:53:32;;;;;;;20.70;4.10;;;18.40;87.10;;;;;;5052255;28;20223;-70
2022/11/15 09:56:02;;;;;;;16.70;4.00;;;18.40;87.40;;;;;;5047274;28;20176;-70
2022/11/15 09:58:35;;;;;;;21.70;4.93;;;18.40;87.50;;;;;;5049931;28;20188;-70
2022/11/15 10:01:15;;;;;;;15.10;3.53;;;18.30;87.00;;;;;;5042642;28;20184;-70
2022/11/15 10:03:45;;;;;;;13.33;4.53;;;18.20;86.30;;;;;;5050246;28;20234;-70
2022/11/15 10:06:26;;;;;;;17.90;4.40;;;18.20;86.70;;;;;;5052454;28;20208;-70
2022/11/15 10:09:17;;;;;;;17.10;3.57;;;18.20;86.80;;;;;;5043406;28;20223;-70
2022/11/15 10:11:44;;;;;;;15.70;3.60;;;18.20;86.60;;;;;;5047787;28;20196;-70
2022/11/15 10:14:15;;;;;;;14.13;3.37;;;18.10;86.60;;;;;;5051502;28;20182;-70
2022/11/15 10:17:03;;;;;;;15.17;3.13;;;18.10;86.90;;;;;;5049201;28;20207;-70
2022/11/15 10:19:57;;;;;;;16.33;3.67;;;18.20;87.10;;;;;;5048489;28;20191;-70
2022/11/15 10:22:38;;;;;;;19.73;3.80;;;18.20;87.40;;;;;;5046104;28;20183;-70
2022/11/15 10:25:08;;;;;;;21.30;3.50;;;18.20;87.60;;;;;;5050150;28;20183;-70
2022/11/15 10:27:36;;;;;;;24.17;4.10;;;18.10;87.10;;;;;;5052820;28;20204;-70
2022/11/15 10:30:11;;;;;;;16.57;3.47;;;18.00;86.80;;;;;;5047837;28;20191;-70
2022/11/15 10:32:40;;;;;;;19.90;3.70;;;18.00;87.20;;;;;;5053503;28;20279;-70
2022/11/15 10:35:29;;;;;;;20.17;3.67;;;18.00;87.10;;;;;;5052405;28;20175;-70
2022/11/15 10:38:07;;;;;;;11.30;2.80;;;17.90;87.10;;;;;;5040707;28;20523;-70
2022/11/15 10:40:36;;;;;;;18.13;3.30;;;17.90;86.90;;;;;;5046272;28;20172;-70
2022/11/15 10:43:15;;;;;;;16.03;3.60;;;17.80;86.90;;;;;;5055415;28;20212;-69
2022/11/15 10:45:44;;;;;;;19.03;3.47;;;17.80;87.00;;;;;;5057595;28;20227;-70
2022/11/15 10:48:14;;;;;;;11.73;3.37;;;17.80;86.80;;;;;;5051906;28;20560;-70
2022/11/15 10:50:44;;;;;;;17.97;2.90;;;17.70;86.80;;;;;;5056906;28;20180;-70
2022/11/15 10:53:14;;;;;;;14.23;3.30;;;17.70;86.90;;;;;;5048496;28;20650;-69
2022/11/15 10:55:43;;;;;;;16.63;3.27;;;17.60;86.90;;;;;;5039494;28;20263;-70
2022/11/15 10:58:30;;;;;;;18.77;3.47;;;17.50;87.50;;;;;;5048774;28;20179;-70
2022/11/15 11:01:13;;;;;;;20.70;3.83;;;17.50;87.60;;;;;;5040991;28;20173;-70
2022/11/15 11:03:42;;;;;;;19.47;3.80;;;17.50;87.80;;;;;;5043930;28;20576;-70
2022/11/15 11:06:17;;;;;;;15.97;2.97;;;17.50;87.80;;;;;;5050800;28;20192;-70
2022/11/15 11:09:03;;;;;;;13.57;3.30;;;17.30;86.40;;;;;;5053948;28;20214;-70
2022/11/15 11:11:51;;;;;;;13.37;3.10;;;17.30;86.90;;;;;;5050582;28;20631;-69
2022/11/15 11:14:39;;;;;;;16.33;3.33;;;17.20;85.40;;;;;;5050061;28;20274;-69
2022/11/15 11:17:21;;;;;;;16.43;3.07;;;17.20;84.80;;;;;;5053241;28;20192;-72
2022/11/15 11:19:54;;;;;;;13.83;3.43;;;17.20;84.60;;;;;;5046106;28;20535;-71
2022/11/15 11:23:08;;;;;;;15.60;2.97;;;17.00;81.80;;;;;;5038606;28;20180;-69
2022/11/15 11:26:13;;;;;;;9.07;2.10;;;17.00;79.30;;;;;;5042773;28;20176;-70
2022/11/15 11:28:56;;;;;;;10.47;1.90;;;17.00;73.90;;;;;;5049831;28;20332;-71
2022/11/15 11:31:38;;;;;;;8.33;2.43;;;17.00;74.10;;;;;;5047762;28;20191;-70
2022/11/15 11:34:15;;;;;;;5.07;1.67;;;16.90;73.50;;;;;;5044306;28;20194;-70
2022/11/15 11:36:58;;;;;;;7.37;1.73;;;16.90;69.40;;;;;;5049948;28;20189;-70
2022/11/15 11:39:57;;;;;;;3.57;1.20;;;16.80;70.10;;;;;;5042714;28;20213;-70
2022/11/15 11:42:42;;;;;;;4.77;1.50;;;16.70;68.60;;;;;;5050013;28;20654;-71
2022/11/15 11:45:28;;;;;;;4.40;1.30;;;16.70;66.70;;;;;;5039437;28;20716;-70
2022/11/15 11:48:02;;;;;;;6.43;1.57;;;16.70;64.20;;;;;;5042743;28;20221;-71
2022/11/15 11:50:34;;;;;;;5.90;1.27;;;16.60;64.70;;;;;;5047310;28;20199;-70
2022/11/15 11:53:27;;;;;;;5.13;1.60;;;16.50;62.70;;;;;;5051688;28;20183;-73
2022/11/15 11:56:02;;;;;;;4.00;1.20;;;16.50;63.60;;;;;;5046603;28;20192;-69
2022/11/15 11:58:43;;;;;;;4.97;1.17;;;16.50;63.40;;;;;;5044146;28;20658;-69
2022/11/15 12:01:16;;;;;;;3.90;1.20;;;16.30;62.40;;;;;;5046811;28;20281;-71
2022/11/15 12:04:04;;;;;;;4.20;1.33;;;16.40;61.40;;;;;;5043070;28;20225;-70
2022/11/15 12:06:42;;;;;;;2.90;1.20;;;16.40;61.10;;;;;;5053038;28;20193;-69
2022/11/15 12:09:29;;;;;;;3.67;1.47;;;16.30;60.30;;;;;;5045762;28;20301;-69
2022/11/15 12:12:18;;;;;;;2.93;1.07;;;16.30;59.90;;;;;;5047441;28;20170;-71
2022/11/15 12:15:28;;;;;;;5.93;1.37;;;16.30;58.60;;;;;;5050479;28;20189;-68
2022/11/15 12:17:57;;;;;;;4.20;1.20;;;16.40;56.60;;;;;;5009511;28;20235;-69
2022/11/15 12:20:34;;;;;;;5.23;1.20;;;16.40;56.70;;;;;;5012129;28;20204;-71
2022/11/15 12:23:36;;;;;;;3.73;1.33;;;16.30;56.90;;;;;;5036212;28;20284;-70
2022/11/15 12:26:31;;;;;;;2.43;1.03;;;16.30;55.90;;;;;;5039531;28;20232;-70
2022/11/15 12:29:04;;;;;;;4.47;1.00;;;16.30;55.90;;;;;;5053384;28;20224;-71
2022/11/15 12:31:34;;;;;;;2.43;1.00;;;16.40;54.90;;;;;;5049593;28;20625;-70
2022/11/15 12:34:13;;;;;;;1.83;1.00;;;16.40;56.00;;;;;;5053752;28;20191;-69
2022/11/15 12:36:45;;;;;;;1.63;0.97;;;16.40;54.60;;;;;;5051643;28;20604;-70
2022/11/15 12:39:14;;;;;;;5.10;1.17;;;16.40;54.20;;;;;;5053796;28;20174;-70
2022/11/15 12:41:43;;;;;;;5.00;1.30;;;16.40;55.20;;;;;;5053681;28;20188;-70
2022/11/15 12:44:32;;;;;;;5.37;1.47;;;16.40;53.80;;;;;;5055574;28;20197;-70
2022/11/15 12:47:01;;;;;;;2.30;1.03;;;16.40;53.70;;;;;;5055158;28;20181;-70
2022/11/15 12:49:28;;;;;;;2.73;1.13;;;16.40;53.40;;;;;;5055184;28;20192;-69
2022/11/15 12:51:59;;;;;;;5.10;1.50;;;16.40;53.70;;;;;;5045447;28;20273;-70
2022/11/15 12:54:30;;;;;;;2.23;1.00;;;16.40;53.50;;;;;;5054867;28;20262;-69
2022/11/15 12:57:06;;;;;;;3.20;1.10;;;16.40;52.50;;;;;;5047096;28;20183;-69
2022/11/15 12:59:58;;;;;;;2.23;0.90;;;16.30;52.90;;;;;;5043830;28;20180;-70
2022/11/15 13:02:47;;;;;;;4.80;1.03;;;16.30;52.80;;;;;;5044781;28;20202;-70
2022/11/15 13:05:18;;;;;;;3.37;1.10;;;16.30;52.20;;;;;;5050107;28;20187;-71
2022/11/15 13:07:45;;;;;;;3.03;1.20;;;16.20;52.80;;;;;;5051778;28;20195;-69
2022/11/15 13:10:27;;;;;;;4.10;1.20;;;16.20;54.50;;;;;;5053198;28;20174;-69
2022/11/15 13:12:56;;;;;;;5.20;1.57;;;16.10;52.70;;;;;;5053788;28;20186;-69
2022/11/15 13:15:39;;;;;;;3.77;1.13;;;16.00;53.20;;;;;;5054768;28;20327;-70
2022/11/15 13:18:31;;;;;;;2.40;1.10;;;16.00;54.20;;;;;;5054966;28;20305;-68